sensor_id;sensor_type;location;lat;lon;timestamp;P1;durP1;ratioP1;P2;durP2;ratioP2
26106;SDS011;13866;50.748;12.630;2022-08-23T00:02:00;3.67;;;3.20;;
26106;SDS011;13866;50.748;12.630;2022-08-23T00:04:41;3.20;;;3.10;;
26106;SDS011;13866;50.748;12.630;2022-08-23T00:07:08;4.33;;;4.03;;
26106;SDS011;13866;50.748;12.630;2022-08-23T00:09:35;3.60;;;3.50;;
26106;SDS011;13866;50.748;12.630;2022-08-23T00:14:34;7.40;;;3.13;;
26106;SDS011;13866;50.748;12.630;2022-08-23T00:17:01;4.00;;;3.70;;
26106;SDS011;13866;50.748;12.630;2022-08-23T00:19:28;3.43;;;3.33;;
26106;SDS011;13866;50.748;12.630;2022-08-23T00:21:54;3.90;;;3.80;;
26106;SDS011;13866;50.748;12.630;2022-08-23T00:24:20;3.73;;;3.67;;
26106;SDS011;13866;50.748;12.630;2022-08-23T00:26:48;3.93;;;3.63;;
26106;SDS011;13866;50.748;12.630;2022-08-23T00:29:16;6.13;;;3.20;;
26106;SDS011;13866;50.748;12.630;2022-08-23T00:31:42;5.87;;;4.30;;
26106;SDS011;13866;50.748;12.630;2022-08-23T00:34:08;9.43;;;4.60;;
26106;SDS011;13866;50.748;12.630;2022-08-23T00:36:33;3.43;;;3.43;;
26106;SDS011;13866;50.748;12.630;2022-08-23T00:38:59;4.73;;;4.57;;
26106;SDS011;13866;50.748;12.630;2022-08-23T00:41:25;4.13;;;3.73;;
26106;SDS011;13866;50.748;12.630;2022-08-23T00:43:52;3.77;;;3.47;;
26106;SDS011;13866;50.748;12.630;2022-08-23T00:46:41;4.00;;;3.70;;
26106;SDS011;13866;50.748;12.630;2022-08-23T00:49:48;6.30;;;3.63;;
26106;SDS011;13866;50.748;12.630;2022-08-23T00:52:23;10.90;;;4.27;;
26106;SDS011;13866;50.748;12.630;2022-08-23T00:55:00;3.93;;;3.80;;
26106;SDS011;13866;50.748;12.630;2022-08-23T00:57:26;4.10;;;3.83;;
26106;SDS011;13866;50.748;12.630;2022-08-23T00:59:52;5.17;;;3.93;;
26106;SDS011;13866;50.748;12.630;2022-08-23T01:02:18;4.53;;;4.10;;
26106;SDS011;13866;50.748;12.630;2022-08-23T01:04:48;4.67;;;4.30;;
26106;SDS011;13866;50.748;12.630;2022-08-23T01:07:34;4.30;;;4.10;;
26106;SDS011;13866;50.748;12.630;2022-08-23T01:10:22;16.10;;;4.43;;
26106;SDS011;13866;50.748;12.630;2022-08-23T01:13:00;6.07;;;4.53;;
26106;SDS011;13866;50.748;12.630;2022-08-23T01:15:37;5.50;;;5.13;;
26106;SDS011;13866;50.748;12.630;2022-08-23T01:18:09;4.63;;;4.53;;
26106;SDS011;13866;50.748;12.630;2022-08-23T01:20:39;7.00;;;4.70;;
26106;SDS011;13866;50.748;12.630;2022-08-23T01:23:19;3.73;;;3.47;;
26106;SDS011;13866;50.748;12.630;2022-08-23T01:26:00;4.40;;;4.20;;
26106;SDS011;13866;50.748;12.630;2022-08-23T01:28:26;5.67;;;4.40;;
26106;SDS011;13866;50.748;12.630;2022-08-23T01:30:52;5.00;;;4.73;;
26106;SDS011;13866;50.748;12.630;2022-08-23T01:33:17;4.60;;;4.40;;
26106;SDS011;13866;50.748;12.630;2022-08-23T01:35:45;4.63;;;4.10;;
26106;SDS011;13866;50.748;12.630;2022-08-23T01:38:15;4.47;;;4.17;;
26106;SDS011;13866;50.748;12.630;2022-08-23T01:40:41;5.47;;;3.20;;
26106;SDS011;13866;50.748;12.630;2022-08-23T01:43:08;4.30;;;4.00;;
26106;SDS011;13866;50.748;12.630;2022-08-23T01:45:34;5.00;;;4.70;;
26106;SDS011;13866;50.748;12.630;2022-08-23T01:48:00;4.63;;;4.33;;
26106;SDS011;13866;50.748;12.630;2022-08-23T01:50:26;5.20;;;4.70;;
26106;SDS011;13866;50.748;12.630;2022-08-23T01:52:53;5.50;;;4.00;;
26106;SDS011;13866;50.748;12.630;2022-08-23T01:55:19;4.20;;;3.80;;
26106;SDS011;13866;50.748;12.630;2022-08-23T01:57:46;3.60;;;3.50;;
26106;SDS011;13866;50.748;12.630;2022-08-23T02:00:14;6.00;;;4.60;;
26106;SDS011;13866;50.748;12.630;2022-08-23T02:02:40;4.80;;;4.50;;
26106;SDS011;13866;50.748;12.630;2022-08-23T02:05:07;4.57;;;4.37;;
26106;SDS011;13866;50.748;12.630;2022-08-23T02:07:33;4.77;;;4.47;;
26106;SDS011;13866;50.748;12.630;2022-08-23T02:09:59;5.57;;;4.70;;
26106;SDS011;13866;50.748;12.630;2022-08-23T02:12:25;4.83;;;4.63;;
26106;SDS011;13866;50.748;12.630;2022-08-23T02:14:51;4.83;;;4.57;;
26106;SDS011;13866;50.748;12.630;2022-08-23T02:17:16;4.40;;;4.30;;
26106;SDS011;13866;50.748;12.630;2022-08-23T02:19:42;8.37;;;5.03;;
26106;SDS011;13866;50.748;12.630;2022-08-23T02:22:09;4.10;;;3.90;;
26106;SDS011;13866;50.748;12.630;2022-08-23T02:24:38;4.80;;;4.60;;
26106;SDS011;13866;50.748;12.630;2022-08-23T02:27:05;6.63;;;5.03;;
26106;SDS011;13866;50.748;12.630;2022-08-23T02:29:31;5.43;;;5.33;;
26106;SDS011;13866;50.748;12.630;2022-08-23T02:31:59;4.17;;;4.07;;
26106;SDS011;13866;50.748;12.630;2022-08-23T02:34:27;4.73;;;4.53;;
26106;SDS011;13866;50.748;12.630;2022-08-23T02:36:54;4.53;;;4.43;;
26106;SDS011;13866;50.748;12.630;2022-08-23T02:39:20;5.37;;;5.00;;
26106;SDS011;13866;50.748;12.630;2022-08-23T02:41:45;4.80;;;4.60;;
26106;SDS011;13866;50.748;12.630;2022-08-23T02:44:11;5.13;;;4.93;;
26106;SDS011;13866;50.748;12.630;2022-08-23T02:46:37;6.43;;;5.00;;
26106;SDS011;13866;50.748;12.630;2022-08-23T02:49:04;4.50;;;4.20;;
26106;SDS011;13866;50.748;12.630;2022-08-23T02:51:30;5.60;;;4.30;;
26106;SDS011;13866;50.748;12.630;2022-08-23T02:53:55;4.63;;;4.47;;
26106;SDS011;13866;50.748;12.630;2022-08-23T02:56:21;6.03;;;5.00;;
26106;SDS011;13866;50.748;12.630;2022-08-23T02:58:47;7.20;;;4.20;;
26106;SDS011;13866;50.748;12.630;2022-08-23T03:03:42;6.80;;;4.33;;
26106;SDS011;13866;50.748;12.630;2022-08-23T03:06:08;4.10;;;4.00;;
26106;SDS011;13866;50.748;12.630;2022-08-23T03:08:33;5.50;;;5.00;;
26106;SDS011;13866;50.748;12.630;2022-08-23T03:10:59;4.83;;;4.70;;
26106;SDS011;13866;50.748;12.630;2022-08-23T03:13:24;4.37;;;4.30;;
26106;SDS011;13866;50.748;12.630;2022-08-23T03:15:50;5.70;;;4.73;;
26106;SDS011;13866;50.748;12.630;2022-08-23T03:18:15;4.63;;;4.40;;
26106;SDS011;13866;50.748;12.630;2022-08-23T03:20:41;4.57;;;4.47;;
26106;SDS011;13866;50.748;12.630;2022-08-23T03:23:08;5.00;;;4.37;;
26106;SDS011;13866;50.748;12.630;2022-08-23T03:25:34;5.40;;;4.87;;
26106;SDS011;13866;50.748;12.630;2022-08-23T03:28:02;5.00;;;4.63;;
26106;SDS011;13866;50.748;12.630;2022-08-23T03:30:29;4.33;;;4.03;;
26106;SDS011;13866;50.748;12.630;2022-08-23T03:32:55;4.97;;;4.87;;
26106;SDS011;13866;50.748;12.630;2022-08-23T03:35:20;4.80;;;4.60;;
26106;SDS011;13866;50.748;12.630;2022-08-23T03:37:46;5.80;;;5.23;;
26106;SDS011;13866;50.748;12.630;2022-08-23T03:40:11;4.83;;;4.63;;
26106;SDS011;13866;50.748;12.630;2022-08-23T03:42:37;4.77;;;4.50;;
26106;SDS011;13866;50.748;12.630;2022-08-23T03:45:03;10.33;;;6.67;;
26106;SDS011;13866;50.748;12.630;2022-08-23T03:47:29;5.73;;;5.40;;
26106;SDS011;13866;50.748;12.630;2022-08-23T03:49:54;5.03;;;4.93;;
26106;SDS011;13866;50.748;12.630;2022-08-23T03:52:22;5.00;;;4.90;;
26106;SDS011;13866;50.748;12.630;2022-08-23T03:54:47;5.30;;;5.13;;
26106;SDS011;13866;50.748;12.630;2022-08-23T03:57:13;6.10;;;5.83;;
26106;SDS011;13866;50.748;12.630;2022-08-23T03:59:39;5.70;;;5.50;;
26106;SDS011;13866;50.748;12.630;2022-08-23T04:02:05;6.23;;;5.90;;
26106;SDS011;13866;50.748;12.630;2022-08-23T04:04:31;6.83;;;5.60;;
26106;SDS011;13866;50.748;12.630;2022-08-23T04:06:57;6.13;;;5.73;;
26106;SDS011;13866;50.748;12.630;2022-08-23T04:09:22;6.03;;;5.63;;
26106;SDS011;13866;50.748;12.630;2022-08-23T04:11:48;5.87;;;5.47;;
26106;SDS011;13866;50.748;12.630;2022-08-23T04:14:15;6.77;;;6.13;;
26106;SDS011;13866;50.748;12.630;2022-08-23T04:16:40;5.17;;;5.07;;
26106;SDS011;13866;50.748;12.630;2022-08-23T04:19:06;6.83;;;6.27;;
26106;SDS011;13866;50.748;12.630;2022-08-23T04:21:33;6.30;;;6.10;;
26106;SDS011;13866;50.748;12.630;2022-08-23T04:24:01;4.90;;;4.80;;
26106;SDS011;13866;50.748;12.630;2022-08-23T04:26:27;7.10;;;6.10;;
26106;SDS011;13866;50.748;12.630;2022-08-23T04:28:53;6.13;;;5.53;;
26106;SDS011;13866;50.748;12.630;2022-08-23T04:31:18;6.00;;;5.77;;
26106;SDS011;13866;50.748;12.630;2022-08-23T04:33:45;10.33;;;6.87;;
26106;SDS011;13866;50.748;12.630;2022-08-23T04:36:11;6.13;;;5.83;;
26106;SDS011;13866;50.748;12.630;2022-08-23T04:38:36;6.50;;;6.20;;
26106;SDS011;13866;50.748;12.630;2022-08-23T04:41:02;5.60;;;5.17;;
26106;SDS011;13866;50.748;12.630;2022-08-23T04:43:46;5.60;;;5.47;;
26106;SDS011;13866;50.748;12.630;2022-08-23T04:46:12;6.90;;;6.40;;
26106;SDS011;13866;50.748;12.630;2022-08-23T04:48:41;7.33;;;6.87;;
26106;SDS011;13866;50.748;12.630;2022-08-23T04:51:08;7.57;;;7.17;;
26106;SDS011;13866;50.748;12.630;2022-08-23T04:53:34;10.30;;;7.30;;
26106;SDS011;13866;50.748;12.630;2022-08-23T04:56:00;6.93;;;6.73;;
26106;SDS011;13866;50.748;12.630;2022-08-23T04:58:27;6.53;;;6.00;;
26106;SDS011;13866;50.748;12.630;2022-08-23T05:00:53;11.23;;;7.33;;
26106;SDS011;13866;50.748;12.630;2022-08-23T05:03:21;7.07;;;6.47;;
26106;SDS011;13866;50.748;12.630;2022-08-23T05:05:47;6.67;;;6.20;;
26106;SDS011;13866;50.748;12.630;2022-08-23T05:08:12;7.40;;;6.73;;
26106;SDS011;13866;50.748;12.630;2022-08-23T05:10:38;6.53;;;6.10;;
26106;SDS011;13866;50.748;12.630;2022-08-23T05:13:04;5.70;;;5.40;;
26106;SDS011;13866;50.748;12.630;2022-08-23T05:15:29;6.40;;;6.10;;
26106;SDS011;13866;50.748;12.630;2022-08-23T05:17:54;6.43;;;5.90;;
26106;SDS011;13866;50.748;12.630;2022-08-23T05:20:20;6.23;;;5.97;;
26106;SDS011;13866;50.748;12.630;2022-08-23T05:22:46;6.07;;;5.70;;
26106;SDS011;13866;50.748;12.630;2022-08-23T05:25:11;6.80;;;6.00;;
26106;SDS011;13866;50.748;12.630;2022-08-23T05:27:37;6.10;;;5.67;;
26106;SDS011;13866;50.748;12.630;2022-08-23T05:30:03;7.83;;;7.20;;
26106;SDS011;13866;50.748;12.630;2022-08-23T05:32:30;7.97;;;7.03;;
26106;SDS011;13866;50.748;12.630;2022-08-23T05:34:56;10.40;;;7.30;;
26106;SDS011;13866;50.748;12.630;2022-08-23T05:37:21;6.10;;;5.90;;
26106;SDS011;13866;50.748;12.630;2022-08-23T05:39:47;5.90;;;5.70;;
26106;SDS011;13866;50.748;12.630;2022-08-23T05:42:13;11.70;;;7.00;;
26106;SDS011;13866;50.748;12.630;2022-08-23T05:44:40;7.27;;;6.90;;
26106;SDS011;13866;50.748;12.630;2022-08-23T05:47:06;7.20;;;6.10;;
26106;SDS011;13866;50.748;12.630;2022-08-23T05:49:33;9.77;;;7.40;;
26106;SDS011;13866;50.748;12.630;2022-08-23T05:52:03;7.13;;;6.77;;
26106;SDS011;13866;50.748;12.630;2022-08-23T05:54:30;6.67;;;6.33;;
26106;SDS011;13866;50.748;12.630;2022-08-23T05:56:56;6.20;;;5.97;;
26106;SDS011;13866;50.748;12.630;2022-08-23T05:59:22;4.50;;;4.17;;
26106;SDS011;13866;50.748;12.630;2022-08-23T06:01:47;7.67;;;6.87;;
26106;SDS011;13866;50.748;12.630;2022-08-23T06:04:13;13.00;;;6.20;;
26106;SDS011;13866;50.748;12.630;2022-08-23T06:06:40;6.10;;;6.00;;
26106;SDS011;13866;50.748;12.630;2022-08-23T06:09:07;6.27;;;6.07;;
26106;SDS011;13866;50.748;12.630;2022-08-23T06:11:34;7.20;;;6.70;;
26106;SDS011;13866;50.748;12.630;2022-08-23T06:14:01;6.80;;;6.60;;
26106;SDS011;13866;50.748;12.630;2022-08-23T06:16:29;6.40;;;5.93;;
26106;SDS011;13866;50.748;12.630;2022-08-23T06:18:57;7.80;;;7.40;;
26106;SDS011;13866;50.748;12.630;2022-08-23T06:21:26;14.33;;;7.87;;
26106;SDS011;13866;50.748;12.630;2022-08-23T06:23:52;8.97;;;8.07;;
26106;SDS011;13866;50.748;12.630;2022-08-23T06:26:18;7.10;;;6.50;;
26106;SDS011;13866;50.748;12.630;2022-08-23T06:28:50;8.20;;;7.60;;
26106;SDS011;13866;50.748;12.630;2022-08-23T06:31:18;8.13;;;7.50;;
26106;SDS011;13866;50.748;12.630;2022-08-23T06:34:04;8.10;;;7.80;;
26106;SDS011;13866;50.748;12.630;2022-08-23T06:36:31;9.50;;;7.70;;
26106;SDS011;13866;50.748;12.630;2022-08-23T06:38:57;10.83;;;7.73;;
26106;SDS011;13866;50.748;12.630;2022-08-23T06:41:22;8.63;;;8.13;;
26106;SDS011;13866;50.748;12.630;2022-08-23T06:43:49;9.07;;;8.47;;
26106;SDS011;13866;50.748;12.630;2022-08-23T06:46:17;8.13;;;7.70;;
26106;SDS011;13866;50.748;12.630;2022-08-23T06:48:44;10.73;;;8.33;;
26106;SDS011;13866;50.748;12.630;2022-08-23T06:51:12;7.50;;;6.93;;
26106;SDS011;13866;50.748;12.630;2022-08-23T06:53:39;8.43;;;7.90;;
26106;SDS011;13866;50.748;12.630;2022-08-23T06:56:05;8.40;;;7.53;;
26106;SDS011;13866;50.748;12.630;2022-08-23T06:58:31;13.27;;;7.90;;
26106;SDS011;13866;50.748;12.630;2022-08-23T07:01:10;9.13;;;7.30;;
26106;SDS011;13866;50.748;12.630;2022-08-23T07:03:51;7.53;;;6.93;;
26106;SDS011;13866;50.748;12.630;2022-08-23T07:06:19;8.17;;;7.67;;
26106;SDS011;13866;50.748;12.630;2022-08-23T07:08:46;8.10;;;7.27;;
26106;SDS011;13866;50.748;12.630;2022-08-23T07:11:11;8.10;;;7.37;;
26106;SDS011;13866;50.748;12.630;2022-08-23T07:13:37;7.47;;;7.03;;
26106;SDS011;13866;50.748;12.630;2022-08-23T07:16:03;8.57;;;7.60;;
26106;SDS011;13866;50.748;12.630;2022-08-23T07:18:28;8.90;;;7.67;;
26106;SDS011;13866;50.748;12.630;2022-08-23T07:20:57;6.90;;;6.50;;
26106;SDS011;13866;50.748;12.630;2022-08-23T07:23:28;6.87;;;6.50;;
26106;SDS011;13866;50.748;12.630;2022-08-23T07:25:57;7.80;;;7.30;;
26106;SDS011;13866;50.748;12.630;2022-08-23T07:28:23;6.30;;;5.83;;
26106;SDS011;13866;50.748;12.630;2022-08-23T07:30:49;8.23;;;5.77;;
26106;SDS011;13866;50.748;12.630;2022-08-23T07:33:15;5.40;;;5.30;;
26106;SDS011;13866;50.748;12.630;2022-08-23T07:35:48;5.50;;;5.20;;
26106;SDS011;13866;50.748;12.630;2022-08-23T07:38:15;6.17;;;5.20;;
26106;SDS011;13866;50.748;12.630;2022-08-23T07:40:41;6.50;;;4.93;;
26106;SDS011;13866;50.748;12.630;2022-08-23T07:43:07;5.63;;;5.27;;
26106;SDS011;13866;50.748;12.630;2022-08-23T07:45:34;6.07;;;5.50;;
26106;SDS011;13866;50.748;12.630;2022-08-23T07:48:00;5.73;;;5.23;;
26106;SDS011;13866;50.748;12.630;2022-08-23T07:50:26;12.87;;;5.20;;
26106;SDS011;13866;50.748;12.630;2022-08-23T07:52:52;9.50;;;5.90;;
26106;SDS011;13866;50.748;12.630;2022-08-23T07:55:18;4.90;;;4.67;;
26106;SDS011;13866;50.748;12.630;2022-08-23T07:57:43;5.60;;;5.40;;
26106;SDS011;13866;50.748;12.630;2022-08-23T08:00:09;8.40;;;4.83;;
26106;SDS011;13866;50.748;12.630;2022-08-23T08:02:35;8.63;;;4.23;;
26106;SDS011;13866;50.748;12.630;2022-08-23T08:05:01;4.63;;;4.43;;
26106;SDS011;13866;50.748;12.630;2022-08-23T08:07:27;3.93;;;3.83;;
26106;SDS011;13866;50.748;12.630;2022-08-23T08:09:52;7.87;;;4.03;;
26106;SDS011;13866;50.748;12.630;2022-08-23T08:12:18;4.03;;;3.70;;
26106;SDS011;13866;50.748;12.630;2022-08-23T08:14:44;6.17;;;4.43;;
26106;SDS011;13866;50.748;12.630;2022-08-23T08:17:12;2.93;;;2.93;;
26106;SDS011;13866;50.748;12.630;2022-08-23T08:19:38;4.43;;;4.10;;
26106;SDS011;13866;50.748;12.630;2022-08-23T08:22:04;4.77;;;4.00;;
26106;SDS011;13866;50.748;12.630;2022-08-23T08:24:29;4.63;;;4.30;;
26106;SDS011;13866;50.748;12.630;2022-08-23T08:26:55;4.33;;;4.07;;
26106;SDS011;13866;50.748;12.630;2022-08-23T08:29:20;4.73;;;4.30;;
26106;SDS011;13866;50.748;12.630;2022-08-23T08:31:46;7.93;;;4.60;;
26106;SDS011;13866;50.748;12.630;2022-08-23T08:34:12;4.40;;;4.10;;
26106;SDS011;13866;50.748;12.630;2022-08-23T08:36:42;7.20;;;3.70;;
26106;SDS011;13866;50.748;12.630;2022-08-23T08:39:11;3.73;;;3.63;;
26106;SDS011;13866;50.748;12.630;2022-08-23T08:41:43;3.63;;;3.37;;
26106;SDS011;13866;50.748;12.630;2022-08-23T08:44:28;5.60;;;4.03;;
26106;SDS011;13866;50.748;12.630;2022-08-23T08:47:11;4.17;;;3.53;;
26106;SDS011;13866;50.748;12.630;2022-08-23T08:49:48;6.53;;;3.93;;
26106;SDS011;13866;50.748;12.630;2022-08-23T08:54:54;5.23;;;3.80;;
26106;SDS011;13866;50.748;12.630;2022-08-23T08:57:26;13.00;;;3.50;;
26106;SDS011;13866;50.748;12.630;2022-08-23T09:00:02;3.87;;;3.10;;
26106;SDS011;13866;50.748;12.630;2022-08-23T09:02:33;6.33;;;5.17;;
26106;SDS011;13866;50.748;12.630;2022-08-23T09:05:45;3.80;;;3.70;;
26106;SDS011;13866;50.748;12.630;2022-08-23T09:08:09;3.30;;;3.30;;
26106;SDS011;13866;50.748;12.630;2022-08-23T09:11:06;4.23;;;3.90;;
26106;SDS011;13866;50.748;12.630;2022-08-23T09:14:00;4.33;;;3.93;;
26106;SDS011;13866;50.748;12.630;2022-08-23T09:17:04;3.50;;;3.30;;
26106;SDS011;13866;50.748;12.630;2022-08-23T09:19:39;8.53;;;3.80;;
26106;SDS011;13866;50.748;12.630;2022-08-23T09:22:08;3.90;;;3.80;;
26106;SDS011;13866;50.748;12.630;2022-08-23T09:24:37;12.03;;;3.93;;
26106;SDS011;13866;50.748;12.630;2022-08-23T09:27:03;5.00;;;4.60;;
26106;SDS011;13866;50.748;12.630;2022-08-23T09:29:32;4.20;;;4.00;;
26106;SDS011;13866;50.748;12.630;2022-08-23T09:32:00;7.37;;;4.20;;
26106;SDS011;13866;50.748;12.630;2022-08-23T09:39:47;3.83;;;3.73;;
26106;SDS011;13866;50.748;12.630;2022-08-23T09:42:31;9.47;;;4.57;;
26106;SDS011;13866;50.748;12.630;2022-08-23T09:45:00;3.20;;;3.10;;
26106;SDS011;13866;50.748;12.630;2022-08-23T09:47:33;3.70;;;3.50;;
26106;SDS011;13866;50.748;12.630;2022-08-23T09:50:06;6.67;;;4.47;;
26106;SDS011;13866;50.748;12.630;2022-08-23T09:53:01;4.10;;;3.73;;
26106;SDS011;13866;50.748;12.630;2022-08-23T09:55:31;4.10;;;3.90;;
26106;SDS011;13866;50.748;12.630;2022-08-23T09:58:03;4.07;;;3.67;;
26106;SDS011;13866;50.748;12.630;2022-08-23T10:00:39;4.50;;;4.20;;
26106;SDS011;13866;50.748;12.630;2022-08-23T10:06:00;5.37;;;4.37;;
26106;SDS011;13866;50.748;12.630;2022-08-23T10:08:28;3.97;;;3.77;;
26106;SDS011;13866;50.748;12.630;2022-08-23T10:11:18;4.70;;;3.50;;
26106;SDS011;13866;50.748;12.630;2022-08-23T10:13:48;3.30;;;3.10;;
26106;SDS011;13866;50.748;12.630;2022-08-23T10:19:18;3.87;;;3.73;;
26106;SDS011;13866;50.748;12.630;2022-08-23T10:22:15;8.93;;;3.33;;
26106;SDS011;13866;50.748;12.630;2022-08-23T10:27:52;3.80;;;3.60;;
26106;SDS011;13866;50.748;12.630;2022-08-23T10:33:42;3.30;;;3.07;;
26106;SDS011;13866;50.748;12.630;2022-08-23T10:41:28;6.03;;;4.30;;
26106;SDS011;13866;50.748;12.630;2022-08-23T10:49:52;6.87;;;3.70;;
26106;SDS011;13866;50.748;12.630;2022-08-23T10:52:25;3.27;;;3.07;;
26106;SDS011;13866;50.748;12.630;2022-08-23T10:54:57;3.47;;;3.17;;
26106;SDS011;13866;50.748;12.630;2022-08-23T10:57:40;3.33;;;3.23;;
26106;SDS011;13866;50.748;12.630;2022-08-23T11:00:08;3.33;;;3.00;;
26106;SDS011;13866;50.748;12.630;2022-08-23T11:02:57;3.00;;;2.87;;
26106;SDS011;13866;50.748;12.630;2022-08-23T11:05:32;4.73;;;2.77;;
26106;SDS011;13866;50.748;12.630;2022-08-23T11:08:05;2.60;;;2.60;;
26106;SDS011;13866;50.748;12.630;2022-08-23T11:16:02;9.63;;;3.67;;
26106;SDS011;13866;50.748;12.630;2022-08-23T11:18:47;5.43;;;2.77;;
26106;SDS011;13866;50.748;12.630;2022-08-23T11:23:48;3.07;;;2.97;;
26106;SDS011;13866;50.748;12.630;2022-08-23T11:28:54;3.70;;;3.33;;
26106;SDS011;13866;50.748;12.630;2022-08-23T11:31:46;4.73;;;2.33;;
26106;SDS011;13866;50.748;12.630;2022-08-23T11:34:24;3.47;;;3.17;;
26106;SDS011;13866;50.748;12.630;2022-08-23T11:42:22;8.13;;;2.63;;
26106;SDS011;13866;50.748;12.630;2022-08-23T11:44:51;4.57;;;2.47;;
26106;SDS011;13866;50.748;12.630;2022-08-23T11:47:25;3.37;;;3.17;;
26106;SDS011;13866;50.748;12.630;2022-08-23T11:50:05;2.87;;;2.70;;
26106;SDS011;13866;50.748;12.630;2022-08-23T11:53:05;4.27;;;3.50;;
26106;SDS011;13866;50.748;12.630;2022-08-23T11:55:51;6.10;;;2.50;;
26106;SDS011;13866;50.748;12.630;2022-08-23T11:58:53;11.10;;;2.40;;
26106;SDS011;13866;50.748;12.630;2022-08-23T12:01:31;6.13;;;3.67;;
26106;SDS011;13866;50.748;12.630;2022-08-23T12:04:00;3.90;;;2.33;;
26106;SDS011;13866;50.748;12.630;2022-08-23T12:06:40;2.77;;;2.67;;
26106;SDS011;13866;50.748;12.630;2022-08-23T12:22:26;4.20;;;3.43;;
26106;SDS011;13866;50.748;12.630;2022-08-23T12:24:55;3.57;;;2.70;;
26106;SDS011;13866;50.748;12.630;2022-08-23T12:30:09;8.23;;;2.87;;
26106;SDS011;13866;50.748;12.630;2022-08-23T12:38:14;3.03;;;2.73;;
26106;SDS011;13866;50.748;12.630;2022-08-23T12:40:58;2.40;;;2.30;;
26106;SDS011;13866;50.748;12.630;2022-08-23T12:46:43;2.80;;;2.70;;
26106;SDS011;13866;50.748;12.630;2022-08-23T12:49:21;3.20;;;2.80;;
26106;SDS011;13866;50.748;12.630;2022-08-23T12:51:56;5.03;;;2.67;;
26106;SDS011;13866;50.748;12.630;2022-08-23T12:57:04;4.63;;;3.90;;
26106;SDS011;13866;50.748;12.630;2022-08-23T12:59:37;3.90;;;2.27;;
26106;SDS011;13866;50.748;12.630;2022-08-23T13:02:04;9.93;;;3.37;;
26106;SDS011;13866;50.748;12.630;2022-08-23T13:04:42;4.40;;;4.00;;
26106;SDS011;13866;50.748;12.630;2022-08-23T13:07:18;3.10;;;2.90;;
26106;SDS011;13866;50.748;12.630;2022-08-23T13:09:59;3.63;;;3.23;;
26106;SDS011;13866;50.748;12.630;2022-08-23T13:12:24;3.03;;;2.93;;
26106;SDS011;13866;50.748;12.630;2022-08-23T13:14:52;6.13;;;2.90;;
26106;SDS011;13866;50.748;12.630;2022-08-23T13:19:51;3.80;;;3.10;;
26106;SDS011;13866;50.748;12.630;2022-08-23T13:24:59;3.17;;;2.97;;
26106;SDS011;13866;50.748;12.630;2022-08-23T13:27:35;7.37;;;3.90;;
26106;SDS011;13866;50.748;12.630;2022-08-23T13:32:47;3.60;;;3.40;;
26106;SDS011;13866;50.748;12.630;2022-08-23T13:37:49;5.33;;;3.10;;
26106;SDS011;13866;50.748;12.630;2022-08-23T13:40:19;5.03;;;3.00;;
26106;SDS011;13866;50.748;12.630;2022-08-23T13:42:57;5.23;;;2.93;;
26106;SDS011;13866;50.748;12.630;2022-08-23T13:45:28;3.13;;;2.70;;
26106;SDS011;13866;50.748;12.630;2022-08-23T13:47:58;4.60;;;3.40;;
26106;SDS011;13866;50.748;12.630;2022-08-23T13:50:31;6.40;;;3.03;;
26106;SDS011;13866;50.748;12.630;2022-08-23T13:52:58;3.20;;;3.10;;
26106;SDS011;13866;50.748;12.630;2022-08-23T13:55:24;2.17;;;1.90;;
26106;SDS011;13866;50.748;12.630;2022-08-23T13:57:51;6.40;;;3.30;;
26106;SDS011;13866;50.748;12.630;2022-08-23T14:00:17;5.90;;;3.60;;
26106;SDS011;13866;50.748;12.630;2022-08-23T14:02:43;7.60;;;3.67;;
26106;SDS011;13866;50.748;12.630;2022-08-23T14:05:13;3.23;;;3.13;;
26106;SDS011;13866;50.748;12.630;2022-08-23T14:07:40;3.03;;;2.40;;
26106;SDS011;13866;50.748;12.630;2022-08-23T14:10:06;6.17;;;3.70;;
26106;SDS011;13866;50.748;12.630;2022-08-23T14:12:32;2.53;;;2.33;;
26106;SDS011;13866;50.748;12.630;2022-08-23T14:15:02;13.80;;;3.63;;
26106;SDS011;13866;50.748;12.630;2022-08-23T14:17:30;3.63;;;3.10;;
26106;SDS011;13866;50.748;12.630;2022-08-23T14:19:59;19.50;;;3.80;;
26106;SDS011;13866;50.748;12.630;2022-08-23T14:22:26;2.50;;;2.30;;
26106;SDS011;13866;50.748;12.630;2022-08-23T14:24:51;6.97;;;2.87;;
26106;SDS011;13866;50.748;12.630;2022-08-23T14:27:17;11.27;;;4.40;;
26106;SDS011;13866;50.748;12.630;2022-08-23T14:29:42;5.90;;;3.07;;
26106;SDS011;13866;50.748;12.630;2022-08-23T14:32:07;6.73;;;3.57;;
26106;SDS011;13866;50.748;12.630;2022-08-23T14:34:33;4.43;;;3.40;;
26106;SDS011;13866;50.748;12.630;2022-08-23T14:36:59;3.90;;;3.40;;
26106;SDS011;13866;50.748;12.630;2022-08-23T14:39:24;16.13;;;3.37;;
26106;SDS011;13866;50.748;12.630;2022-08-23T14:41:50;5.80;;;3.50;;
26106;SDS011;13866;50.748;12.630;2022-08-23T14:44:16;5.27;;;3.30;;
26106;SDS011;13866;50.748;12.630;2022-08-23T14:46:42;3.50;;;3.13;;
26106;SDS011;13866;50.748;12.630;2022-08-23T14:49:08;4.33;;;2.40;;
26106;SDS011;13866;50.748;12.630;2022-08-23T14:51:36;4.27;;;3.07;;
26106;SDS011;13866;50.748;12.630;2022-08-23T14:54:05;7.43;;;4.27;;
26106;SDS011;13866;50.748;12.630;2022-08-23T14:56:31;4.33;;;3.13;;
26106;SDS011;13866;50.748;12.630;2022-08-23T14:58:58;3.00;;;2.70;;
26106;SDS011;13866;50.748;12.630;2022-08-23T15:01:24;4.83;;;3.27;;
26106;SDS011;13866;50.748;12.630;2022-08-23T15:03:50;2.73;;;2.13;;
26106;SDS011;13866;50.748;12.630;2022-08-23T15:06:16;2.30;;;2.20;;
26106;SDS011;13866;50.748;12.630;2022-08-23T15:08:43;2.97;;;2.80;;
26106;SDS011;13866;50.748;12.630;2022-08-23T15:11:09;2.47;;;2.20;;
26106;SDS011;13866;50.748;12.630;2022-08-23T15:13:36;3.83;;;2.50;;
26106;SDS011;13866;50.748;12.630;2022-08-23T15:16:03;4.73;;;2.90;;
26106;SDS011;13866;50.748;12.630;2022-08-23T15:18:31;9.70;;;2.50;;
26106;SDS011;13866;50.748;12.630;2022-08-23T15:20:58;7.37;;;2.97;;
26106;SDS011;13866;50.748;12.630;2022-08-23T15:23:23;6.20;;;2.33;;
26106;SDS011;13866;50.748;12.630;2022-08-23T15:25:49;3.20;;;2.90;;
26106;SDS011;13866;50.748;12.630;2022-08-23T15:28:15;2.70;;;2.50;;
26106;SDS011;13866;50.748;12.630;2022-08-23T15:30:43;3.30;;;2.40;;
26106;SDS011;13866;50.748;12.630;2022-08-23T15:33:09;2.50;;;2.40;;
26106;SDS011;13866;50.748;12.630;2022-08-23T15:35:36;1.90;;;1.80;;
26106;SDS011;13866;50.748;12.630;2022-08-23T15:38:18;4.50;;;2.10;;
26106;SDS011;13866;50.748;12.630;2022-08-23T15:40:45;2.53;;;2.33;;
26106;SDS011;13866;50.748;12.630;2022-08-23T15:43:12;2.03;;;1.83;;
26106;SDS011;13866;50.748;12.630;2022-08-23T15:45:38;2.23;;;2.13;;
26106;SDS011;13866;50.748;12.630;2022-08-23T15:48:05;1.70;;;1.60;;
26106;SDS011;13866;50.748;12.630;2022-08-23T15:50:44;1.50;;;1.50;;
26106;SDS011;13866;50.748;12.630;2022-08-23T15:53:10;2.93;;;1.97;;
26106;SDS011;13866;50.748;12.630;2022-08-23T15:55:36;3.63;;;1.80;;
26106;SDS011;13866;50.748;12.630;2022-08-23T15:58:03;4.63;;;1.47;;
26106;SDS011;13866;50.748;12.630;2022-08-23T16:00:29;2.30;;;2.10;;
26106;SDS011;13866;50.748;12.630;2022-08-23T16:02:55;3.63;;;2.47;;
26106;SDS011;13866;50.748;12.630;2022-08-23T16:05:21;1.50;;;1.50;;
26106;SDS011;13866;50.748;12.630;2022-08-23T16:07:47;4.13;;;2.37;;
26106;SDS011;13866;50.748;12.630;2022-08-23T16:10:15;6.37;;;2.47;;
26106;SDS011;13866;50.748;12.630;2022-08-23T16:12:41;6.10;;;2.10;;
26106;SDS011;13866;50.748;12.630;2022-08-23T16:15:07;1.77;;;1.77;;
26106;SDS011;13866;50.748;12.630;2022-08-23T16:17:34;2.30;;;1.93;;